sensor_id;sensor_type;location;lat;lon;timestamp;P1;durP1;ratioP1;P2;durP2;ratioP2
15915;SDS011;8057;47.830;-3.870;2023-05-14T00:02:31;23.43;;;21.23;;
15915;SDS011;8057;47.830;-3.870;2023-05-14T00:06:42;20.40;;;18.53;;
15915;SDS011;8057;47.830;-3.870;2023-05-14T00:10:52;19.60;;;17.90;;
15915;SDS011;8057;47.830;-3.870;2023-05-14T00:15:01;21.03;;;19.07;;
15915;SDS011;8057;47.830;-3.870;2023-05-14T00:19:10;19.70;;;17.90;;
15915;SDS011;8057;47.830;-3.870;2023-05-14T00:23:23;21.63;;;19.70;;
15915;SDS011;8057;47.830;-3.870;2023-05-14T00:27:33;20.63;;;18.53;;
15915;SDS011;8057;47.830;-3.870;2023-05-14T00:31:43;18.77;;;17.03;;
15915;SDS011;8057;47.830;-3.870;2023-05-14T00:35:52;20.17;;;18.17;;
15915;SDS011;8057;47.830;-3.870;2023-05-14T00:40:03;20.17;;;18.17;;
15915;SDS011;8057;47.830;-3.870;2023-05-14T00:44:14;19.67;;;17.87;;
15915;SDS011;8057;47.830;-3.870;2023-05-14T00:48:23;17.77;;;16.17;;
15915;SDS011;8057;47.830;-3.870;2023-05-14T00:52:33;22.33;;;20.00;;
15915;SDS011;8057;47.830;-3.870;2023-05-14T00:56:43;20.17;;;18.17;;
15915;SDS011;8057;47.830;-3.870;2023-05-14T01:00:53;22.47;;;20.33;;
15915;SDS011;8057;47.830;-3.870;2023-05-14T01:05:02;22.93;;;20.33;;
15915;SDS011;8057;47.830;-3.870;2023-05-14T01:09:13;21.37;;;19.27;;
15915;SDS011;8057;47.830;-3.870;2023-05-14T01:13:32;20.77;;;18.63;;
15915;SDS011;8057;47.830;-3.870;2023-05-14T01:17:49;21.00;;;18.97;;
15915;SDS011;8057;47.830;-3.870;2023-05-14T01:22:03;20.40;;;18.30;;
15915;SDS011;8057;47.830;-3.870;2023-05-14T01:26:12;21.30;;;19.30;;
15915;SDS011;8057;47.830;-3.870;2023-05-14T01:30:22;23.17;;;20.80;;
15915;SDS011;8057;47.830;-3.870;2023-05-14T01:34:36;24.77;;;22.27;;
15915;SDS011;8057;47.830;-3.870;2023-05-14T01:38:49;24.70;;;22.43;;
15915;SDS011;8057;47.830;-3.870;2023-05-14T01:42:59;26.30;;;23.13;;
15915;SDS011;8057;47.830;-3.870;2023-05-14T01:47:09;27.23;;;24.17;;
15915;SDS011;8057;47.830;-3.870;2023-05-14T01:51:18;27.67;;;24.97;;
15915;SDS011;8057;47.830;-3.870;2023-05-14T01:55:29;28.50;;;23.87;;
15915;SDS011;8057;47.830;-3.870;2023-05-14T01:59:38;27.40;;;24.60;;
15915;SDS011;8057;47.830;-3.870;2023-05-14T02:03:48;28.00;;;25.00;;
15915;SDS011;8057;47.830;-3.870;2023-05-14T02:07:57;27.27;;;24.33;;
15915;SDS011;8057;47.830;-3.870;2023-05-14T02:12:08;27.23;;;24.50;;
15915;SDS011;8057;47.830;-3.870;2023-05-14T02:16:18;27.13;;;24.33;;
15915;SDS011;8057;47.830;-3.870;2023-05-14T02:20:27;25.60;;;23.00;;
15915;SDS011;8057;47.830;-3.870;2023-05-14T02:24:36;21.97;;;19.77;;
15915;SDS011;8057;47.830;-3.870;2023-05-14T02:28:47;22.23;;;20.17;;
15915;SDS011;8057;47.830;-3.870;2023-05-14T02:32:56;25.17;;;22.67;;
15915;SDS011;8057;47.830;-3.870;2023-05-14T02:37:05;26.37;;;23.80;;
15915;SDS011;8057;47.830;-3.870;2023-05-14T02:41:14;23.37;;;21.17;;
15915;SDS011;8057;47.830;-3.870;2023-05-14T02:45:25;22.80;;;20.50;;
15915;SDS011;8057;47.830;-3.870;2023-05-14T02:49:34;19.30;;;17.53;;
15915;SDS011;8057;47.830;-3.870;2023-05-14T02:53:43;19.73;;;17.83;;
15915;SDS011;8057;47.830;-3.870;2023-05-14T02:57:52;23.00;;;20.70;;
15915;SDS011;8057;47.830;-3.870;2023-05-14T03:02:04;22.47;;;20.30;;
15915;SDS011;8057;47.830;-3.870;2023-05-14T03:06:13;20.07;;;18.27;;
15915;SDS011;8057;47.830;-3.870;2023-05-14T03:10:23;23.70;;;21.43;;
15915;SDS011;8057;47.830;-3.870;2023-05-14T03:14:32;19.77;;;17.90;;
15915;SDS011;8057;47.830;-3.870;2023-05-14T03:18:43;18.97;;;17.20;;
15915;SDS011;8057;47.830;-3.870;2023-05-14T03:22:52;18.10;;;16.50;;
15915;SDS011;8057;47.830;-3.870;2023-05-14T03:27:02;22.77;;;20.60;;
15915;SDS011;8057;47.830;-3.870;2023-05-14T03:31:11;18.40;;;16.70;;
15915;SDS011;8057;47.830;-3.870;2023-05-14T03:35:22;16.27;;;14.77;;
15915;SDS011;8057;47.830;-3.870;2023-05-14T03:39:31;21.70;;;19.70;;
15915;SDS011;8057;47.830;-3.870;2023-05-14T03:43:40;21.13;;;19.20;;
15915;SDS011;8057;47.830;-3.870;2023-05-14T03:47:50;23.17;;;20.97;;
15915;SDS011;8057;47.830;-3.870;2023-05-14T03:52:01;23.77;;;21.37;;
15915;SDS011;8057;47.830;-3.870;2023-05-14T03:56:10;25.00;;;22.50;;
15915;SDS011;8057;47.830;-3.870;2023-05-14T04:00:19;24.47;;;22.07;;
15915;SDS011;8057;47.830;-3.870;2023-05-14T04:04:28;24.97;;;22.57;;
15915;SDS011;8057;47.830;-3.870;2023-05-14T04:08:39;24.40;;;22.00;;
15915;SDS011;8057;47.830;-3.870;2023-05-14T04:12:48;25.10;;;22.70;;
15915;SDS011;8057;47.830;-3.870;2023-05-14T04:16:57;22.90;;;20.70;;
15915;SDS011;8057;47.830;-3.870;2023-05-14T04:21:07;23.40;;;21.27;;
15915;SDS011;8057;47.830;-3.870;2023-05-14T04:25:17;22.80;;;20.60;;
15915;SDS011;8057;47.830;-3.870;2023-05-14T04:29:27;24.83;;;22.33;;
15915;SDS011;8057;47.830;-3.870;2023-05-14T04:33:36;24.50;;;22.10;;
15915;SDS011;8057;47.830;-3.870;2023-05-14T04:37:45;25.90;;;23.30;;
15915;SDS011;8057;47.830;-3.870;2023-05-14T04:41:56;23.57;;;21.20;;
15915;SDS011;8057;47.830;-3.870;2023-05-14T04:46:05;24.27;;;21.90;;
15915;SDS011;8057;47.830;-3.870;2023-05-14T04:50:15;26.50;;;23.83;;
15915;SDS011;8057;47.830;-3.870;2023-05-14T04:54:24;26.77;;;24.07;;
15915;SDS011;8057;47.830;-3.870;2023-05-14T04:58:35;25.87;;;23.23;;
15915;SDS011;8057;47.830;-3.870;2023-05-14T05:02:44;24.83;;;22.43;;
15915;SDS011;8057;47.830;-3.870;2023-05-14T05:06:53;23.60;;;21.20;;
15915;SDS011;8057;47.830;-3.870;2023-05-14T05:11:02;26.00;;;22.90;;
15915;SDS011;8057;47.830;-3.870;2023-05-14T05:15:13;22.57;;;20.37;;
15915;SDS011;8057;47.830;-3.870;2023-05-14T05:19:22;23.27;;;21.07;;
15915;SDS011;8057;47.830;-3.870;2023-05-14T05:23:45;23.30;;;21.00;;
15915;SDS011;8057;47.830;-3.870;2023-05-14T05:27:54;22.60;;;20.40;;
15915;SDS011;8057;47.830;-3.870;2023-05-14T05:32:05;23.40;;;21.20;;
15915;SDS011;8057;47.830;-3.870;2023-05-14T05:36:15;25.10;;;22.70;;
15915;SDS011;8057;47.830;-3.870;2023-05-14T05:40:24;23.67;;;21.27;;
15915;SDS011;8057;47.830;-3.870;2023-05-14T05:44:33;27.00;;;24.17;;
15915;SDS011;8057;47.830;-3.870;2023-05-14T05:48:44;27.30;;;24.50;;
15915;SDS011;8057;47.830;-3.870;2023-05-14T05:52:53;26.93;;;23.93;;
15915;SDS011;8057;47.830;-3.870;2023-05-14T05:57:02;21.97;;;19.80;;
15915;SDS011;8057;47.830;-3.870;2023-05-14T06:01:12;23.63;;;21.33;;
15915;SDS011;8057;47.830;-3.870;2023-05-14T06:05:22;22.73;;;20.53;;
15915;SDS011;8057;47.830;-3.870;2023-05-14T06:09:32;24.10;;;21.70;;
15915;SDS011;8057;47.830;-3.870;2023-05-14T06:13:41;24.97;;;22.57;;
15915;SDS011;8057;47.830;-3.870;2023-05-14T06:17:50;25.13;;;22.63;;
15915;SDS011;8057;47.830;-3.870;2023-05-14T06:22:00;23.03;;;20.83;;
15915;SDS011;8057;47.830;-3.870;2023-05-14T06:26:09;26.03;;;23.47;;
15915;SDS011;8057;47.830;-3.870;2023-05-14T06:30:18;22.70;;;20.50;;
15915;SDS011;8057;47.830;-3.870;2023-05-14T06:34:28;23.53;;;21.20;;
15915;SDS011;8057;47.830;-3.870;2023-05-14T06:38:39;20.70;;;18.70;;
15915;SDS011;8057;47.830;-3.870;2023-05-14T06:42:48;25.20;;;22.77;;
15915;SDS011;8057;47.830;-3.870;2023-05-14T06:46:58;23.90;;;21.67;;
15915;SDS011;8057;47.830;-3.870;2023-05-14T06:51:07;24.93;;;22.60;;
15915;SDS011;8057;47.830;-3.870;2023-05-14T06:55:18;20.97;;;18.97;;
15915;SDS011;8057;47.830;-3.870;2023-05-14T06:59:27;23.33;;;21.13;;
15915;SDS011;8057;47.830;-3.870;2023-05-14T07:03:36;23.20;;;21.10;;
15915;SDS011;8057;47.830;-3.870;2023-05-14T07:07:45;19.90;;;18.00;;
15915;SDS011;8057;47.830;-3.870;2023-05-14T07:11:56;19.17;;;17.47;;
15915;SDS011;8057;47.830;-3.870;2023-05-14T07:16:06;20.80;;;18.87;;
15915;SDS011;8057;47.830;-3.870;2023-05-14T07:20:16;22.10;;;20.20;;
15915;SDS011;8057;47.830;-3.870;2023-05-14T07:24:25;21.40;;;19.40;;
15915;SDS011;8057;47.830;-3.870;2023-05-14T07:28:36;17.90;;;16.20;;
15915;SDS011;8057;47.830;-3.870;2023-05-14T07:32:45;17.40;;;15.90;;
15915;SDS011;8057;47.830;-3.870;2023-05-14T07:36:54;17.30;;;15.77;;
15915;SDS011;8057;47.830;-3.870;2023-05-14T07:41:04;17.60;;;16.00;;
15915;SDS011;8057;47.830;-3.870;2023-05-14T07:45:15;18.50;;;16.87;;
15915;SDS011;8057;47.830;-3.870;2023-05-14T07:49:24;17.50;;;16.00;;
15915;SDS011;8057;47.830;-3.870;2023-05-14T07:53:33;17.40;;;15.80;;
15915;SDS011;8057;47.830;-3.870;2023-05-14T07:57:42;16.73;;;15.33;;
15915;SDS011;8057;47.830;-3.870;2023-05-14T08:01:53;14.83;;;13.63;;
15915;SDS011;8057;47.830;-3.870;2023-05-14T08:06:02;17.37;;;15.87;;
15915;SDS011;8057;47.830;-3.870;2023-05-14T08:10:12;15.20;;;13.80;;
15915;SDS011;8057;47.830;-3.870;2023-05-14T08:14:21;13.73;;;12.43;;
15915;SDS011;8057;47.830;-3.870;2023-05-14T08:18:32;15.33;;;14.03;;
15915;SDS011;8057;47.830;-3.870;2023-05-14T08:22:41;13.87;;;12.77;;
15915;SDS011;8057;47.830;-3.870;2023-05-14T08:26:50;13.73;;;12.63;;
15915;SDS011;8057;47.830;-3.870;2023-05-14T08:30:59;13.77;;;12.67;;
15915;SDS011;8057;47.830;-3.870;2023-05-14T08:35:10;12.20;;;11.03;;
15915;SDS011;8057;47.830;-3.870;2023-05-14T08:39:19;11.60;;;10.80;;
15915;SDS011;8057;47.830;-3.870;2023-05-14T08:43:29;11.30;;;10.30;;
15915;SDS011;8057;47.830;-3.870;2023-05-14T08:47:46;10.70;;;9.80;;
15915;SDS011;8057;47.830;-3.870;2023-05-14T08:51:58;11.00;;;10.00;;
15915;SDS011;8057;47.830;-3.870;2023-05-14T08:56:07;9.60;;;8.80;;
15915;SDS011;8057;47.830;-3.870;2023-05-14T09:00:18;8.33;;;7.70;;
15915;SDS011;8057;47.830;-3.870;2023-05-14T09:04:29;8.63;;;7.93;;
15915;SDS011;8057;47.830;-3.870;2023-05-14T09:08:41;8.30;;;7.70;;
15915;SDS011;8057;47.830;-3.870;2023-05-14T09:12:50;8.57;;;7.77;;
15915;SDS011;8057;47.830;-3.870;2023-05-14T09:16:59;9.30;;;8.40;;
15915;SDS011;8057;47.830;-3.870;2023-05-14T09:21:09;9.03;;;8.33;;
15915;SDS011;8057;47.830;-3.870;2023-05-14T09:25:25;9.00;;;8.27;;
15915;SDS011;8057;47.830;-3.870;2023-05-14T09:29:34;9.03;;;8.23;;
15915;SDS011;8057;47.830;-3.870;2023-05-14T09:33:45;9.03;;;8.30;;
15915;SDS011;8057;47.830;-3.870;2023-05-14T09:37:58;10.73;;;9.83;;
15915;SDS011;8057;47.830;-3.870;2023-05-14T09:42:08;9.87;;;9.17;;
15915;SDS011;8057;47.830;-3.870;2023-05-14T09:46:17;9.27;;;8.53;;
15915;SDS011;8057;47.830;-3.870;2023-05-14T09:50:27;9.17;;;8.47;;
15915;SDS011;8057;47.830;-3.870;2023-05-14T09:54:37;8.27;;;7.67;;
15915;SDS011;8057;47.830;-3.870;2023-05-14T09:58:48;8.87;;;8.23;;
15915;SDS011;8057;47.830;-3.870;2023-05-14T10:02:59;10.50;;;9.77;;
15915;SDS011;8057;47.830;-3.870;2023-05-14T10:07:12;10.40;;;9.60;;
15915;SDS011;8057;47.830;-3.870;2023-05-14T10:11:23;11.27;;;10.40;;
15915;SDS011;8057;47.830;-3.870;2023-05-14T10:15:36;8.57;;;7.97;;
15915;SDS011;8057;47.830;-3.870;2023-05-14T10:19:49;11.07;;;10.17;;
15915;SDS011;8057;47.830;-3.870;2023-05-14T10:24:01;10.13;;;9.43;;
15915;SDS011;8057;47.830;-3.870;2023-05-14T10:28:11;9.37;;;8.50;;
15915;SDS011;8057;47.830;-3.870;2023-05-14T10:32:21;11.10;;;10.20;;
15915;SDS011;8057;47.830;-3.870;2023-05-14T10:36:32;11.10;;;9.93;;
15915;SDS011;8057;47.830;-3.870;2023-05-14T10:40:41;10.73;;;9.63;;
15915;SDS011;8057;47.830;-3.870;2023-05-14T10:44:51;11.30;;;10.30;;
15915;SDS011;8057;47.830;-3.870;2023-05-14T10:49:05;9.03;;;8.27;;
15915;SDS011;8057;47.830;-3.870;2023-05-14T10:53:16;10.70;;;9.70;;
15915;SDS011;8057;47.830;-3.870;2023-05-14T10:57:26;10.83;;;9.73;;
15915;SDS011;8057;47.830;-3.870;2023-05-14T11:01:36;11.07;;;9.97;;
15915;SDS011;8057;47.830;-3.870;2023-05-14T11:05:49;10.77;;;9.83;;
15915;SDS011;8057;47.830;-3.870;2023-05-14T11:10:00;10.10;;;9.30;;
15915;SDS011;8057;47.830;-3.870;2023-05-14T11:14:10;8.43;;;7.73;;
15915;SDS011;8057;47.830;-3.870;2023-05-14T11:18:26;10.53;;;9.53;;
15915;SDS011;8057;47.830;-3.870;2023-05-14T11:22:37;10.57;;;9.63;;
15915;SDS011;8057;47.830;-3.870;2023-05-14T11:26:47;9.30;;;8.40;;
15915;SDS011;8057;47.830;-3.870;2023-05-14T11:30:57;11.43;;;10.33;;
15915;SDS011;8057;47.830;-3.870;2023-05-14T11:35:06;10.57;;;9.57;;
15915;SDS011;8057;47.830;-3.870;2023-05-14T11:39:18;11.90;;;10.80;;
15915;SDS011;8057;47.830;-3.870;2023-05-14T11:43:27;10.37;;;9.47;;
15915;SDS011;8057;47.830;-3.870;2023-05-14T11:47:36;10.73;;;9.73;;
15915;SDS011;8057;47.830;-3.870;2023-05-14T11:51:45;10.17;;;9.37;;
15915;SDS011;8057;47.830;-3.870;2023-05-14T11:55:56;10.37;;;9.33;;
15915;SDS011;8057;47.830;-3.870;2023-05-14T12:00:06;10.63;;;9.73;;
15915;SDS011;8057;47.830;-3.870;2023-05-14T12:04:19;10.67;;;9.77;;
15915;SDS011;8057;47.830;-3.870;2023-05-14T12:08:29;9.13;;;8.40;;
15915;SDS011;8057;47.830;-3.870;2023-05-14T12:12:43;11.50;;;10.40;;
15915;SDS011;8057;47.830;-3.870;2023-05-14T12:16:54;10.33;;;9.43;;
15915;SDS011;8057;47.830;-3.870;2023-05-14T12:21:03;9.30;;;8.50;;
15915;SDS011;8057;47.830;-3.870;2023-05-14T12:25:14;7.10;;;6.60;;
15915;SDS011;8057;47.830;-3.870;2023-05-14T12:29:24;6.93;;;6.43;;
15915;SDS011;8057;47.830;-3.870;2023-05-14T12:33:34;6.30;;;5.80;;
15915;SDS011;8057;47.830;-3.870;2023-05-14T12:37:43;6.77;;;6.23;;
15915;SDS011;8057;47.830;-3.870;2023-05-14T12:41:52;5.93;;;5.43;;
15915;SDS011;8057;47.830;-3.870;2023-05-14T12:46:03;5.90;;;5.40;;
15915;SDS011;8057;47.830;-3.870;2023-05-14T12:50:12;5.27;;;4.77;;
15915;SDS011;8057;47.830;-3.870;2023-05-14T12:54:22;5.77;;;5.37;;
15915;SDS011;8057;47.830;-3.870;2023-05-14T12:58:31;7.30;;;6.70;;
15915;SDS011;8057;47.830;-3.870;2023-05-14T13:02:42;6.97;;;6.23;;
15915;SDS011;8057;47.830;-3.870;2023-05-14T13:06:51;6.50;;;6.00;;
15915;SDS011;8057;47.830;-3.870;2023-05-14T13:11:00;7.30;;;6.57;;
15915;SDS011;8057;47.830;-3.870;2023-05-14T13:15:09;6.80;;;6.30;;
15915;SDS011;8057;47.830;-3.870;2023-05-14T13:19:20;6.77;;;6.07;;
15915;SDS011;8057;47.830;-3.870;2023-05-14T13:23:30;7.60;;;6.70;;
15915;SDS011;8057;47.830;-3.870;2023-05-14T13:27:39;7.67;;;7.10;;
15915;SDS011;8057;47.830;-3.870;2023-05-14T13:31:48;7.27;;;6.77;;
15915;SDS011;8057;47.830;-3.870;2023-05-14T13:36:00;7.70;;;7.20;;
15915;SDS011;8057;47.830;-3.870;2023-05-14T13:40:10;7.67;;;6.90;;
15915;SDS011;8057;47.830;-3.870;2023-05-14T13:44:19;6.77;;;6.33;;
15915;SDS011;8057;47.830;-3.870;2023-05-14T13:48:29;6.97;;;6.50;;
15915;SDS011;8057;47.830;-3.870;2023-05-14T13:52:39;8.63;;;8.03;;
15915;SDS011;8057;47.830;-3.870;2023-05-14T13:56:49;21.87;;;15.77;;
15915;SDS011;8057;47.830;-3.870;2023-05-14T14:00:58;9.97;;;9.17;;
15915;SDS011;8057;47.830;-3.870;2023-05-14T14:05:08;9.87;;;8.97;;
15915;SDS011;8057;47.830;-3.870;2023-05-14T14:09:19;7.93;;;7.13;;
15915;SDS011;8057;47.830;-3.870;2023-05-14T14:13:28;7.77;;;7.17;;
15915;SDS011;8057;47.830;-3.870;2023-05-14T14:17:37;7.07;;;6.57;;
15915;SDS011;8057;47.830;-3.870;2023-05-14T14:21:47;6.73;;;6.23;;
15915;SDS011;8057;47.830;-3.870;2023-05-14T14:25:58;8.60;;;7.77;;
15915;SDS011;8057;47.830;-3.870;2023-05-14T14:30:08;7.80;;;7.20;;
15915;SDS011;8057;47.830;-3.870;2023-05-14T14:34:22;7.47;;;6.97;;
15915;SDS011;8057;47.830;-3.870;2023-05-14T14:38:31;6.77;;;6.33;;
15915;SDS011;8057;47.830;-3.870;2023-05-14T14:42:42;6.87;;;6.33;;
15915;SDS011;8057;47.830;-3.870;2023-05-14T14:46:52;7.67;;;7.07;;
15915;SDS011;8057;47.830;-3.870;2023-05-14T14:51:01;7.53;;;7.00;;
15915;SDS011;8057;47.830;-3.870;2023-05-14T14:55:11;7.13;;;6.73;;
15915;SDS011;8057;47.830;-3.870;2023-05-14T14:59:22;6.50;;;6.10;;
15915;SDS011;8057;47.830;-3.870;2023-05-14T15:03:31;6.27;;;5.73;;
15915;SDS011;8057;47.830;-3.870;2023-05-14T15:07:41;6.37;;;5.87;;
15915;SDS011;8057;47.830;-3.870;2023-05-14T15:11:55;5.73;;;5.30;;
15915;SDS011;8057;47.830;-3.870;2023-05-14T15:16:09;5.77;;;5.23;;
15915;SDS011;8057;47.830;-3.870;2023-05-14T15:20:21;4.73;;;4.43;;
15915;SDS011;8057;47.830;-3.870;2023-05-14T15:24:32;5.07;;;4.67;;
15915;SDS011;8057;47.830;-3.870;2023-05-14T15:28:43;4.83;;;4.43;;
15915;SDS011;8057;47.830;-3.870;2023-05-14T15:32:55;5.80;;;5.30;;
15915;SDS011;8057;47.830;-3.870;2023-05-14T15:37:04;5.17;;;4.77;;
15915;SDS011;8057;47.830;-3.870;2023-05-14T15:41:16;5.07;;;4.67;;
15915;SDS011;8057;47.830;-3.870;2023-05-14T15:45:27;7.07;;;6.47;;
15915;SDS011;8057;47.830;-3.870;2023-05-14T15:54:27;7.60;;;7.00;;
15915;SDS011;8057;47.830;-3.870;2023-05-14T15:58:40;7.93;;;7.27;;
15915;SDS011;8057;47.830;-3.870;2023-05-14T16:02:50;7.50;;;6.90;;
15915;SDS011;8057;47.830;-3.870;2023-05-14T16:07:00;7.47;;;6.77;;
15915;SDS011;8057;47.830;-3.870;2023-05-14T16:11:13;6.90;;;6.27;;
15915;SDS011;8057;47.830;-3.870;2023-05-14T16:15:22;6.40;;;5.90;;
15915;SDS011;8057;47.830;-3.870;2023-05-14T16:19:32;6.30;;;5.87;;
15915;SDS011;8057;47.830;-3.870;2023-05-14T16:23:42;6.27;;;5.67;;
15915;SDS011;8057;47.830;-3.870;2023-05-14T16:27:52;9.70;;;6.10;;
15915;SDS011;8057;47.830;-3.870;2023-05-14T16:32:02;5.70;;;5.20;;
15915;SDS011;8057;47.830;-3.870;2023-05-14T16:36:12;6.03;;;5.53;;
15915;SDS011;8057;47.830;-3.870;2023-05-14T16:40:22;5.73;;;5.33;;
15915;SDS011;8057;47.830;-3.870;2023-05-14T16:44:33;4.97;;;4.57;;
15915;SDS011;8057;47.830;-3.870;2023-05-14T16:48:43;5.60;;;5.20;;
15915;SDS011;8057;47.830;-3.870;2023-05-14T16:52:52;5.07;;;4.67;;
15915;SDS011;8057;47.830;-3.870;2023-05-14T16:57:02;3.83;;;3.53;;
15915;SDS011;8057;47.830;-3.870;2023-05-14T17:01:14;4.83;;;4.33;;
15915;SDS011;8057;47.830;-3.870;2023-05-14T17:05:24;4.43;;;4.03;;
15915;SDS011;8057;47.830;-3.870;2023-05-14T17:09:34;4.97;;;4.53;;
15915;SDS011;8057;47.830;-3.870;2023-05-14T17:14:02;5.17;;;4.77;;
15915;SDS011;8057;47.830;-3.870;2023-05-14T17:36:57;5.57;;;5.17;;
15915;SDS011;8057;47.830;-3.870;2023-05-14T17:41:07;5.67;;;5.27;;
15915;SDS011;8057;47.830;-3.870;2023-05-14T17:45:17;5.40;;;4.90;;
15915;SDS011;8057;47.830;-3.870;2023-05-14T17:53:49;4.93;;;4.63;;
15915;SDS011;8057;47.830;-3.870;2023-05-14T17:58:01;4.80;;;4.50;;
15915;SDS011;8057;47.830;-3.870;2023-05-14T18:02:10;5.17;;;4.87;;
15915;SDS011;8057;47.830;-3.870;2023-05-14T18:06:22;5.30;;;4.80;;
15915;SDS011;8057;47.830;-3.870;2023-05-14T18:10:49;4.97;;;4.63;;
15915;SDS011;8057;47.830;-3.870;2023-05-14T18:15:06;4.50;;;4.20;;
15915;SDS011;8057;47.830;-3.870;2023-05-14T18:19:48;4.63;;;4.27;;
15915;SDS011;8057;47.830;-3.870;2023-05-14T18:24:12;4.60;;;4.30;;
15915;SDS011;8057;47.830;-3.870;2023-05-14T18:33:31;5.53;;;5.03;;
15915;SDS011;8057;47.830;-3.870;2023-05-14T18:37:40;5.80;;;5.40;;
15915;SDS011;8057;47.830;-3.870;2023-05-14T18:41:50;5.50;;;5.10;;
15915;SDS011;8057;47.830;-3.870;2023-05-14T18:46:01;5.20;;;4.90;;
15915;SDS011;8057;47.830;-3.870;2023-05-14T18:50:10;6.37;;;5.83;;
15915;SDS011;8057;47.830;-3.870;2023-05-14T18:54:19;6.33;;;5.93;;
15915;SDS011;8057;47.830;-3.870;2023-05-14T18:58:29;7.13;;;6.53;;
15915;SDS011;8057;47.830;-3.870;2023-05-14T19:02:39;8.67;;;7.97;;
15915;SDS011;8057;47.830;-3.870;2023-05-14T19:06:49;7.40;;;6.90;;
15915;SDS011;8057;47.830;-3.870;2023-05-14T19:10:58;7.87;;;7.33;;
15915;SDS011;8057;47.830;-3.870;2023-05-14T19:15:07;8.77;;;8.07;;
15915;SDS011;8057;47.830;-3.870;2023-05-14T19:19:19;9.03;;;8.27;;
15915;SDS011;8057;47.830;-3.870;2023-05-14T19:23:28;8.47;;;7.77;;
15915;SDS011;8057;47.830;-3.870;2023-05-14T19:27:38;9.10;;;8.30;;
15915;SDS011;8057;47.830;-3.870;2023-05-14T19:31:49;9.87;;;9.07;;
15915;SDS011;8057;47.830;-3.870;2023-05-14T19:36:01;10.57;;;9.67;;
15915;SDS011;8057;47.830;-3.870;2023-05-14T19:40:12;9.13;;;8.33;;
15915;SDS011;8057;47.830;-3.870;2023-05-14T19:44:21;10.17;;;9.27;;
15915;SDS011;8057;47.830;-3.870;2023-05-14T19:48:30;10.73;;;9.87;;
15915;SDS011;8057;47.830;-3.870;2023-05-14T19:52:41;11.03;;;10.07;;
15915;SDS011;8057;47.830;-3.870;2023-05-14T19:56:51;10.73;;;9.83;;
15915;SDS011;8057;47.830;-3.870;2023-05-14T20:01:00;11.10;;;10.23;;
15915;SDS011;8057;47.830;-3.870;2023-05-14T20:05:10;10.43;;;9.67;;
15915;SDS011;8057;47.830;-3.870;2023-05-14T20:09:21;10.57;;;9.57;;
15915;SDS011;8057;47.830;-3.870;2023-05-14T20:13:31;11.43;;;10.43;;
15915;SDS011;8057;47.830;-3.870;2023-05-14T20:17:44;10.20;;;9.43;;
15915;SDS011;8057;47.830;-3.870;2023-05-14T20:21:54;10.87;;;9.97;;
15915;SDS011;8057;47.830;-3.870;2023-05-14T20:26:05;10.60;;;9.70;;
15915;SDS011;8057;47.830;-3.870;2023-05-14T20:30:14;11.00;;;10.00;;
15915;SDS011;8057;47.830;-3.870;2023-05-14T20:34:24;10.47;;;9.67;;
15915;SDS011;8057;47.830;-3.870;2023-05-14T20:38:51;10.03;;;9.33;;
15915;SDS011;8057;47.830;-3.870;2023-05-14T20:43:02;10.30;;;9.50;;
15915;SDS011;8057;47.830;-3.870;2023-05-14T20:47:11;9.93;;;9.03;;
15915;SDS011;8057;47.830;-3.870;2023-05-14T20:51:27;9.07;;;8.37;;
15915;SDS011;8057;47.830;-3.870;2023-05-14T20:55:47;10.07;;;9.17;;
15915;SDS011;8057;47.830;-3.870;2023-05-14T21:00:24;10.80;;;9.90;;
15915;SDS011;8057;47.830;-3.870;2023-05-14T21:04:38;10.80;;;10.00;;
15915;SDS011;8057;47.830;-3.870;2023-05-14T21:08:48;10.43;;;9.43;;
15915;SDS011;8057;47.830;-3.870;2023-05-14T21:18:00;11.90;;;10.80;;
15915;SDS011;8057;47.830;-3.870;2023-05-14T21:22:14;11.20;;;10.27;;
15915;SDS011;8057;47.830;-3.870;2023-05-14T21:26:24;12.20;;;11.00;;
15915;SDS011;8057;47.830;-3.870;2023-05-14T21:30:48;10.60;;;9.70;;
15915;SDS011;8057;47.830;-3.870;2023-05-14T21:35:20;10.77;;;9.87;;
15915;SDS011;8057;47.830;-3.870;2023-05-14T21:39:33;12.23;;;11.10;;
15915;SDS011;8057;47.830;-3.870;2023-05-14T21:43:52;11.20;;;10.30;;
15915;SDS011;8057;47.830;-3.870;2023-05-14T21:48:02;10.70;;;9.73;;
15915;SDS011;8057;47.830;-3.870;2023-05-14T21:52:16;10.33;;;9.33;;
15915;SDS011;8057;47.830;-3.870;2023-05-14T21:56:26;9.93;;;9.13;;
15915;SDS011;8057;47.830;-3.870;2023-05-14T22:00:36;9.60;;;8.80;;
15915;SDS011;8057;47.830;-3.870;2023-05-14T22:05:00;9.87;;;9.07;;
15915;SDS011;8057;47.830;-3.870;2023-05-14T22:09:16;9.53;;;8.67;;
15915;SDS011;8057;47.830;-3.870;2023-05-14T22:13:26;9.73;;;8.93;;
15915;SDS011;8057;47.830;-3.870;2023-05-14T22:17:36;9.90;;;8.73;;
15915;SDS011;8057;47.830;-3.870;2023-05-14T22:21:48;8.43;;;7.73;;
15915;SDS011;8057;47.830;-3.870;2023-05-14T22:26:02;8.20;;;7.47;;
15915;SDS011;8057;47.830;-3.870;2023-05-14T22:30:12;8.77;;;7.97;;
15915;SDS011;8057;47.830;-3.870;2023-05-14T22:34:22;8.40;;;7.70;;
15915;SDS011;8057;47.830;-3.870;2023-05-14T22:38:32;8.70;;;7.47;;
15915;SDS011;8057;47.830;-3.870;2023-05-14T22:42:48;10.10;;;8.20;;
15915;SDS011;8057;47.830;-3.870;2023-05-14T22:47:00;6.67;;;6.17;;
15915;SDS011;8057;47.830;-3.870;2023-05-14T22:51:11;7.80;;;7.20;;
15915;SDS011;8057;47.830;-3.870;2023-05-14T22:55:23;8.80;;;8.10;;
15915;SDS011;8057;47.830;-3.870;2023-05-14T22:59:35;7.60;;;6.90;;
15915;SDS011;8057;47.830;-3.870;2023-05-14T23:03:45;8.43;;;7.73;;
15915;SDS011;8057;47.830;-3.870;2023-05-14T23:07:58;8.53;;;7.87;;
15915;SDS011;8057;47.830;-3.870;2023-05-14T23:12:10;7.57;;;6.87;;
15915;SDS011;8057;47.830;-3.870;2023-05-14T23:16:30;8.10;;;7.40;;
15915;SDS011;8057;47.830;-3.870;2023-05-14T23:20:41;7.53;;;6.83;;
15915;SDS011;8057;47.830;-3.870;2023-05-14T23:24:53;9.83;;;6.23;;
15915;SDS011;8057;47.830;-3.870;2023-05-14T23:29:05;7.50;;;6.90;;
15915;SDS011;8057;47.830;-3.870;2023-05-14T23:33:20;7.17;;;6.63;;
15915;SDS011;8057;47.830;-3.870;2023-05-14T23:37:30;7.70;;;7.00;;
15915;SDS011;8057;47.830;-3.870;2023-05-14T23:42:09;7.80;;;7.17;;
15915;SDS011;8057;47.830;-3.870;2023-05-14T23:46:19;7.63;;;6.93;;
15915;SDS011;8057;47.830;-3.870;2023-05-14T23:50:33;7.17;;;6.50;;
15915;SDS011;8057;47.830;-3.870;2023-05-14T23:54:44;6.97;;;6.37;;
15915;SDS011;8057;47.830;-3.870;2023-05-14T23:58:54;5.93;;;5.43;;
